Aeroporto :
LOGIN :

Iscrizione | Disclaimer

   EN    FR    IT 

 










Sommario :    VFR   VFR Marginale   IFR   IFR Intensivo   IFR Molto Intensivo
Visibilità : 
Base nubi : 
>= 8 km
>= 3000ft
5 / 8 km
1000 / 3000 ft
1500m / 5 km
500 / 1000 ft
800 / 1500m
200 / 500 ft
< 800m
< 200 ft
Simboli :   Temporali  Nebbia  Neve Forte  Precipitazioni Forti  Vento > 20 kt
SIGMETs :   Varie  Temporali  Ghiacco  Turbolenza  Onda orograficha  Ceneri Vulcaniche






- Altitudine del aeroporto : 137 ft


LIPS - Istrana AFB Treviso

ULTIMO METAR :
  • 221655Z /////KT 8000 NSC 04/01 Q1030 RMK FEW FEW200 VIS MIN 8000 WIND THR26 00000KT WIND THR08 00000KT BLU

METARs OBSOLETI :
  • 221555Z /////KT CAVOK 07/02 Q1030 RMK FEW FEW200 VIS MIN 9999 WIND THR26 00000KT WIND THR08 00000KT BLU
  • 221455Z /////KT CAVOK 09/01 Q1030 RMK FEW FEW200 VIS MIN 9999 WIND THR26 00000KT WIND THR08 00000KT BLU

TAF TAF LIPS
Valido dal 22 a 15 ore il 23 a 00 ore UTC


221400Z 2215/2224 VRB03KT CAVOK
TEMPO 2217/2224 5000 BR NSC



MetMap, La meteo Aeronautica in un colpo d'occhio ! - Copyright ORBIFLY Dicembre 2007 - Disclaimer

ORBIFLY MET'MAP TEAM :

Programmazione e sviluppo : Alexandra Zaïnal
Concezione : Baudouin d'Aumeries
Aiuto per la programmazione : Marc-Olivier Méhu
Supporto tecnico e logistico : Manuel Goepfert
Aiuto per la traduzione : Arnaldo La Scala

Contatto : metmap@orbifly.com




FONTI E CREDITI :

   NOAA